createdAt,value
2023-05-25T00:02:35.685Z,100.00
2023-05-25T00:05:39.748Z,100.00
2023-05-25T00:08:42.280Z,100.00
2023-05-25T00:11:45.270Z,100.00
2023-05-25T00:14:48.214Z,100.00
2023-05-25T00:17:54.597Z,100.00
2023-05-25T00:20:57.238Z,100.00
2023-05-25T00:24:00.691Z,99.27
2023-05-25T00:27:04.662Z,99.44
2023-05-25T00:30:08.617Z,98.30
2023-05-25T00:33:12.096Z,95.94
2023-05-25T00:36:14.862Z,96.20
2023-05-25T00:39:19.734Z,97.88
2023-05-25T00:42:24.014Z,98.81
2023-05-25T00:45:26.581Z,98.42
2023-05-25T00:48:29.552Z,98.52
2023-05-25T00:51:36.520Z,98.79
2023-05-25T00:54:39.530Z,99.98
2023-05-25T00:57:46.877Z,97.28
2023-05-25T01:00:51.185Z,99.69
2023-05-25T01:03:57.699Z,98.07
2023-05-25T01:07:01.561Z,98.21
2023-05-25T01:10:07.241Z,96.64
2023-05-25T01:13:12.207Z,96.10
2023-05-25T01:16:16.658Z,96.38
2023-05-25T01:19:19.589Z,96.55
2023-05-25T01:22:27.722Z,98.05
2023-05-25T01:25:43.235Z,99.72
2023-05-25T01:28:50.411Z,100.00
2023-05-25T01:31:54.433Z,100.00
2023-05-25T01:34:59.244Z,100.00
2023-05-25T01:38:03.078Z,100.00
2023-05-25T01:41:05.751Z,100.00
2023-05-25T01:44:08.702Z,100.00
2023-05-25T01:47:43.741Z,100.00
2023-05-25T01:50:58.065Z,100.00
2023-05-25T01:54:10.090Z,100.00
2023-05-25T01:57:16.164Z,100.00
2023-05-25T02:00:21.355Z,100.00
2023-05-25T02:03:24.603Z,100.00
2023-05-25T02:06:27.303Z,100.00
2023-05-25T02:09:30.077Z,100.00
2023-05-25T02:12:32.613Z,100.00
2023-05-25T02:15:35.483Z,100.00
2023-05-25T02:18:38.032Z,100.00
2023-05-25T02:21:42.257Z,100.00
2023-05-25T02:24:44.723Z,100.00
2023-05-25T02:27:47.563Z,100.00
2023-05-25T02:30:50.970Z,100.00
2023-05-25T02:33:54.362Z,100.00
2023-05-25T02:36:56.857Z,100.00
2023-05-25T02:40:01.601Z,100.00
2023-05-25T02:43:04.313Z,100.00
2023-05-25T02:46:07.280Z,100.00
2023-05-25T02:49:09.879Z,100.00
2023-05-25T02:52:13.170Z,100.00
2023-05-25T02:55:18.726Z,100.00
2023-05-25T02:58:22.865Z,100.00
2023-05-25T03:01:30.815Z,100.00
2023-05-25T03:04:37.527Z,100.00
2023-05-25T03:07:40.082Z,100.00
2023-05-25T03:10:45.349Z,100.00
2023-05-25T03:13:48.014Z,100.00
2023-05-25T03:16:53.992Z,100.00
2023-05-25T03:19:57.325Z,100.00
2023-05-25T03:23:01.471Z,100.00
2023-05-25T03:26:03.986Z,100.00
2023-05-25T03:29:08.094Z,100.00
2023-05-25T03:32:10.922Z,100.00
2023-05-25T03:35:14.412Z,100.00
2023-05-25T03:38:16.927Z,100.00
2023-05-25T03:41:19.849Z,100.00
2023-05-25T03:44:22.394Z,100.00
2023-05-25T03:47:25.398Z,100.00
2023-05-25T03:50:28.482Z,100.00
2023-05-25T03:53:32.723Z,100.00
2023-05-25T03:56:35.343Z,100.00
2023-05-25T03:59:41.054Z,100.00
2023-05-25T04:02:44.942Z,100.00
2023-05-25T04:05:47.822Z,100.00
2023-05-25T04:08:50.566Z,100.00
2023-05-25T04:11:53.349Z,100.00
2023-05-25T04:14:56.445Z,100.00
2023-05-25T04:17:59.782Z,100.00
2023-05-25T04:21:02.313Z,98.60
2023-05-25T04:24:07.750Z,97.15
2023-05-25T04:27:10.597Z,92.38
2023-05-25T04:30:13.780Z,93.06
2023-05-25T04:33:17.864Z,92.46
2023-05-25T04:36:22.930Z,91.55
2023-05-25T04:39:25.477Z,89.78
2023-05-25T04:42:28.910Z,88.94
2023-05-25T04:45:33.301Z,87.25
2023-05-25T04:48:39.071Z,83.57
2023-05-25T04:51:41.674Z,82.45
2023-05-25T04:54:44.648Z,80.63
2023-05-25T04:57:47.678Z,82.00
2023-05-25T05:00:52.573Z,80.00
2023-05-25T05:03:55.603Z,80.86
2023-05-25T05:06:59.943Z,78.95
2023-05-25T05:10:05.311Z,78.83
2023-05-25T05:13:09.376Z,77.36
2023-05-25T05:16:12.219Z,80.54
2023-05-25T05:19:15.679Z,77.23
2023-05-25T05:22:18.216Z,74.92
2023-05-25T05:25:21.408Z,75.54
2023-05-25T05:28:27.359Z,73.45
2023-05-25T05:31:31.752Z,73.90
2023-05-25T05:34:35.060Z,73.28
2023-05-25T05:37:39.025Z,72.28
2023-05-25T05:40:41.596Z,69.65
2023-05-25T05:43:46.917Z,73.23
2023-05-25T05:46:50.349Z,68.62
2023-05-25T05:49:54.762Z,68.64
2023-05-25T05:52:57.662Z,70.07
2023-05-25T05:56:03.903Z,68.90
2023-05-25T05:59:06.641Z,66.37
2023-05-25T06:02:09.488Z,65.76
2023-05-25T06:05:13.030Z,64.71
2023-05-25T06:08:17.177Z,63.67
2023-05-25T06:11:21.520Z,60.22
2023-05-25T06:14:25.601Z,64.34
2023-05-25T06:17:30.554Z,65.61
2023-05-25T06:20:35.647Z,66.69
2023-05-25T06:23:38.591Z,64.00
2023-05-25T06:26:41.645Z,65.22
2023-05-25T06:29:46.719Z,63.78
2023-05-25T06:32:49.445Z,59.82
2023-05-25T06:35:56.436Z,57.61
2023-05-25T06:39:00.994Z,57.11
2023-05-25T06:42:04.026Z,59.73
2023-05-25T06:45:07.888Z,56.10
2023-05-25T06:48:11.592Z,56.80
2023-05-25T06:51:14.523Z,57.40
2023-05-25T06:54:17.390Z,56.98
2023-05-25T06:57:20.201Z,54.13
2023-05-25T07:00:23.007Z,55.49
2023-05-25T07:03:25.534Z,57.37
2023-05-25T07:06:28.283Z,58.83
2023-05-25T07:09:30.908Z,56.52
2023-05-25T07:12:33.906Z,55.65
2023-05-25T07:15:36.382Z,55.13
2023-05-25T07:18:40.883Z,55.16
2023-05-25T07:21:43.417Z,53.35
2023-05-25T07:24:47.110Z,58.44
2023-05-25T07:27:50.511Z,59.38
2023-05-25T07:30:53.398Z,60.16
2023-05-25T07:33:56.563Z,55.67
2023-05-25T07:36:59.511Z,57.70
2023-05-25T07:40:02.299Z,58.15
2023-05-25T07:43:08.141Z,58.05
2023-05-25T07:46:10.958Z,58.35
2023-05-25T07:49:16.328Z,59.34
2023-05-25T07:52:19.575Z,58.85
2023-05-25T07:55:22.642Z,56.59
2023-05-25T07:58:25.252Z,56.94
2023-05-25T08:01:28.812Z,57.17
2023-05-25T08:04:34.180Z,52.33
2023-05-25T08:07:37.150Z,50.85
2023-05-25T08:10:40.046Z,48.95
2023-05-25T08:13:43.019Z,53.36
2023-05-25T08:16:45.848Z,53.86
2023-05-25T08:19:48.377Z,52.58
2023-05-25T08:22:53.590Z,50.60
2023-05-25T08:25:57.090Z,46.79
2023-05-25T08:29:02.294Z,43.67
2023-05-25T08:32:05.012Z,46.90
2023-05-25T08:35:08.297Z,42.99
2023-05-25T08:38:10.800Z,41.16
2023-05-25T08:41:13.732Z,44.33
2023-05-25T08:44:16.588Z,43.53
2023-05-25T08:47:22.646Z,43.71
2023-05-25T08:50:27.245Z,47.71
2023-05-25T08:53:40.683Z,46.65
2023-05-25T08:56:51.275Z,46.76
2023-05-25T09:00:04.633Z,47.41
2023-05-25T09:03:13.721Z,45.77
2023-05-25T09:06:18.236Z,44.40
2023-05-25T09:09:20.954Z,42.31
2023-05-25T09:12:24.401Z,42.14
2023-05-25T09:15:27.637Z,46.26
2023-05-25T09:18:30.525Z,47.89
2023-05-25T09:21:33.108Z,48.96
2023-05-25T09:24:36.693Z,45.91
2023-05-25T09:27:39.385Z,45.25
2023-05-25T09:30:42.289Z,43.89
2023-05-25T09:33:46.472Z,38.70
2023-05-25T09:36:49.892Z,39.94
2023-05-25T09:39:52.901Z,44.98
2023-05-25T09:42:58.490Z,46.81
2023-05-25T09:46:01.356Z,49.12
2023-05-25T09:49:07.806Z,51.27
2023-05-25T09:52:13.673Z,48.92
2023-05-25T09:55:16.612Z,48.27
2023-05-25T09:58:24.188Z,48.30
2023-05-25T10:01:28.090Z,51.19
2023-05-25T10:04:30.891Z,49.19
2023-05-25T10:07:35.174Z,45.27
2023-05-25T10:10:39.574Z,43.72
2023-05-25T10:13:47.855Z,41.90
2023-05-25T10:16:53.664Z,41.97
2023-05-25T10:20:01.321Z,47.02
2023-05-25T10:23:13.155Z,45.42
2023-05-25T10:26:21.908Z,45.26
2023-05-25T10:29:28.069Z,46.13
2023-05-25T10:32:33.154Z,48.95
2023-05-25T10:35:56.191Z,48.97
2023-05-25T10:39:03.290Z,47.83
2023-05-25T10:42:06.986Z,48.12
2023-05-25T10:45:10.128Z,46.98
2023-05-25T10:48:14.646Z,48.60
2023-05-25T10:51:20.634Z,46.79
2023-05-25T10:54:24.385Z,46.70
2023-05-25T10:57:31.223Z,46.08
2023-05-25T11:00:34.249Z,46.38
2023-05-25T11:03:54.553Z,46.89
2023-05-25T11:07:08.278Z,48.14
2023-05-25T11:10:10.820Z,45.83
2023-05-25T11:13:32.095Z,41.56
2023-05-25T11:16:37.802Z,43.16
2023-05-25T11:19:43.656Z,42.31
2023-05-25T11:22:46.236Z,43.46
2023-05-25T11:25:49.662Z,45.68
2023-05-25T11:28:56.437Z,45.37
2023-05-25T11:32:00.739Z,42.73
2023-05-25T11:35:09.133Z,41.07
2023-05-25T11:38:12.696Z,41.89
2023-05-25T11:41:19.130Z,43.27
2023-05-25T11:44:36.692Z,44.61
2023-05-25T11:47:39.303Z,43.48
2023-05-25T11:50:42.288Z,43.48
2023-05-25T11:53:46.002Z,44.08
2023-05-25T11:56:48.856Z,44.84
2023-05-25T11:59:53.781Z,44.48
2023-05-25T12:02:57.713Z,46.44
2023-05-25T12:06:02.583Z,47.00
2023-05-25T12:09:11.709Z,46.19
2023-05-25T12:12:14.718Z,47.00
2023-05-25T12:15:21.912Z,46.70
2023-05-25T12:18:25.043Z,43.18
2023-05-25T12:21:30.336Z,44.84
2023-05-25T12:24:33.448Z,43.14
2023-05-25T12:27:37.137Z,45.17
2023-05-25T12:30:40.506Z,46.71
2023-05-25T12:33:43.583Z,48.24
2023-05-25T12:36:54.128Z,47.34
2023-05-25T12:39:59.477Z,45.90
2023-05-25T12:43:04.119Z,46.31
2023-05-25T12:46:07.865Z,48.11
2023-05-25T12:49:23.506Z,49.23
2023-05-25T12:52:39.959Z,48.63
2023-05-25T12:55:43.085Z,49.35
2023-05-25T12:58:45.889Z,49.97
2023-05-25T13:01:49.272Z,48.38
2023-05-25T13:04:51.962Z,46.21
2023-05-25T13:07:56.504Z,47.61
2023-05-25T13:10:59.941Z,49.37
2023-05-25T13:14:04.638Z,50.59
2023-05-25T13:17:07.259Z,49.25
2023-05-25T13:20:18.554Z,48.22
2023-05-25T13:23:21.112Z,48.35
2023-05-25T13:26:25.715Z,48.89
2023-05-25T13:29:28.245Z,48.70
2023-05-25T13:32:31.865Z,48.57
2023-05-25T13:35:41.606Z,47.84
2023-05-25T13:38:45.183Z,49.68
2023-05-25T13:41:48.188Z,48.98
2023-05-25T13:45:11.113Z,48.83
2023-05-25T13:48:33.894Z,47.65
2023-05-25T13:51:56.888Z,47.85
2023-05-25T13:55:19.243Z,48.44
2023-05-25T13:58:37.916Z,48.67
2023-05-25T14:01:40.767Z,49.10
2023-05-25T14:04:43.627Z,48.41
2023-05-25T14:07:47.242Z,48.65
2023-05-25T14:10:50.035Z,47.75
2023-05-25T14:13:52.793Z,49.10
2023-05-25T14:16:55.765Z,49.17
2023-05-25T14:19:58.971Z,49.10
2023-05-25T14:23:01.987Z,49.08
2023-05-25T14:26:04.609Z,49.71
2023-05-25T14:29:07.399Z,50.81
2023-05-25T14:32:09.930Z,51.00
2023-05-25T14:35:12.850Z,50.40
2023-05-25T14:38:15.806Z,50.93
2023-05-25T14:41:18.846Z,51.77
2023-05-25T14:44:21.754Z,51.16
2023-05-25T14:47:24.638Z,49.69
2023-05-25T14:50:29.053Z,51.85
2023-05-25T14:53:33.323Z,49.88
2023-05-25T14:56:35.804Z,49.23
2023-05-25T14:59:40.666Z,49.98
2023-05-25T15:02:43.186Z,49.97
2023-05-25T15:05:46.317Z,49.90
2023-05-25T15:08:49.071Z,49.28
2023-05-25T15:11:52.126Z,49.59
2023-05-25T15:14:54.640Z,50.75
2023-05-25T15:17:57.460Z,49.97
2023-05-25T15:21:00.055Z,50.21
2023-05-25T15:24:02.868Z,49.43
2023-05-25T15:27:06.536Z,49.26
2023-05-25T15:30:09.538Z,49.45
2023-05-25T15:33:13.736Z,50.09
2023-05-25T15:36:16.637Z,50.86
2023-05-25T15:39:19.230Z,50.11
2023-05-25T15:42:22.939Z,51.27
2023-05-25T15:45:26.265Z,50.83
2023-05-25T15:48:29.168Z,50.51
2023-05-25T15:51:32.685Z,50.58
2023-05-25T15:54:35.583Z,50.97
2023-05-25T15:57:38.146Z,50.77
2023-05-25T16:00:43.685Z,50.93
2023-05-25T16:03:48.374Z,50.64
2023-05-25T16:06:50.980Z,51.23
2023-05-25T16:09:54.559Z,50.04
2023-05-25T16:12:57.722Z,50.29
2023-05-25T16:16:00.749Z,50.49
2023-05-25T16:19:03.466Z,50.25
2023-05-25T16:22:06.358Z,49.77
2023-05-25T16:25:09.237Z,50.18
2023-05-25T16:28:12.085Z,49.90
2023-05-25T16:31:17.458Z,51.13
2023-05-25T16:34:20.904Z,52.38
2023-05-25T16:37:23.376Z,52.99
2023-05-25T16:40:26.214Z,53.39
2023-05-25T16:43:29.108Z,53.20
2023-05-25T16:46:32.871Z,53.69
2023-05-25T16:49:35.556Z,54.40
2023-05-25T16:52:40.709Z,56.06
2023-05-25T16:55:43.823Z,55.10
2023-05-25T16:58:47.687Z,55.14
2023-05-25T17:01:51.189Z,55.75
2023-05-25T17:04:54.129Z,57.42
2023-05-25T17:07:56.670Z,56.27
2023-05-25T17:10:59.548Z,56.25
2023-05-25T17:14:02.650Z,56.69
2023-05-25T17:17:05.784Z,56.70
2023-05-25T17:20:08.460Z,57.17
2023-05-25T17:23:11.336Z,56.94
2023-05-25T17:26:14.287Z,57.66
2023-05-25T17:29:17.654Z,57.33
2023-05-25T17:32:20.681Z,57.68
2023-05-25T17:35:23.478Z,58.86
2023-05-25T17:38:27.600Z,58.25
2023-05-25T17:41:30.861Z,58.63
2023-05-25T17:44:33.349Z,58.69
2023-05-25T17:47:36.512Z,58.65
2023-05-25T17:50:39.061Z,59.45
2023-05-25T17:53:41.899Z,59.78
2023-05-25T17:56:44.899Z,60.44
2023-05-25T17:59:47.754Z,59.96
2023-05-25T18:02:52.086Z,60.36
2023-05-25T18:05:55.746Z,60.73
2023-05-25T18:08:58.307Z,60.57
2023-05-25T18:12:03.630Z,60.79
2023-05-25T18:15:11.192Z,60.67
2023-05-25T18:18:15.778Z,60.33
2023-05-25T18:21:18.269Z,60.48
2023-05-25T18:24:21.078Z,60.88
2023-05-25T18:27:23.767Z,61.53
2023-05-25T18:30:26.543Z,61.92
2023-05-25T18:33:29.119Z,61.80
2023-05-25T18:36:33.110Z,62.35
2023-05-25T18:39:35.726Z,62.84
2023-05-25T18:42:39.303Z,62.22
2023-05-25T18:45:41.902Z,62.07
2023-05-25T18:48:44.731Z,63.30
2023-05-25T18:51:47.754Z,63.41
2023-05-25T18:54:50.756Z,63.87
2023-05-25T18:57:53.377Z,64.00
2023-05-25T19:00:56.134Z,64.78
2023-05-25T19:03:59.110Z,64.89
2023-05-25T19:07:02.009Z,65.54
2023-05-25T19:10:05.320Z,65.71
2023-05-25T19:13:09.212Z,66.21
2023-05-25T19:16:11.713Z,66.87
2023-05-25T19:19:14.654Z,67.13
2023-05-25T19:22:17.213Z,67.03
2023-05-25T19:25:20.111Z,67.48
2023-05-25T19:28:22.697Z,67.92
2023-05-25T19:31:26.099Z,68.37
2023-05-25T19:34:30.696Z,68.73
2023-05-25T19:37:33.715Z,68.99
2023-05-25T19:40:36.259Z,69.39
2023-05-25T19:43:39.303Z,70.37
2023-05-25T19:46:42.329Z,70.19
2023-05-25T19:49:45.128Z,70.74
2023-05-25T19:52:47.653Z,71.26
2023-05-25T19:55:50.425Z,72.20
2023-05-25T19:58:53.464Z,72.68
2023-05-25T20:01:56.805Z,73.03
2023-05-25T20:04:59.798Z,72.78
2023-05-25T20:08:02.353Z,73.37
2023-05-25T20:11:05.211Z,73.60
2023-05-25T20:14:07.820Z,74.23
2023-05-25T20:17:10.739Z,75.25
2023-05-25T20:20:13.428Z,75.01
2023-05-25T20:23:16.692Z,75.70
2023-05-25T20:26:19.103Z,74.65
2023-05-25T20:29:23.679Z,75.00
2023-05-25T20:32:26.193Z,75.87
2023-05-25T20:35:30.366Z,75.17
2023-05-25T20:38:32.865Z,76.61
2023-05-25T20:41:36.336Z,76.06
2023-05-25T20:44:38.860Z,75.96
2023-05-25T20:47:41.692Z,76.18
2023-05-25T20:50:44.395Z,76.30
2023-05-25T20:53:47.366Z,76.43
2023-05-25T20:56:51.136Z,76.76
2023-05-25T20:59:54.292Z,77.13
2023-05-25T21:02:56.948Z,78.40
2023-05-25T21:05:59.938Z,78.00
2023-05-25T21:09:03.317Z,77.78
2023-05-25T21:12:07.568Z,78.01
2023-05-25T21:15:10.724Z,78.46
2023-05-25T21:18:14.910Z,79.93
2023-05-25T21:21:19.220Z,80.04
2023-05-25T21:24:22.168Z,78.92
2023-05-25T21:27:24.808Z,79.65
2023-05-25T21:30:27.700Z,80.28
2023-05-25T21:33:35.632Z,79.62
2023-05-25T21:36:38.533Z,81.11
2023-05-25T21:39:40.999Z,80.96
2023-05-25T21:42:43.748Z,81.84
2023-05-25T21:45:47.240Z,81.50
2023-05-25T21:48:50.203Z,82.01
2023-05-25T21:51:52.763Z,82.73
2023-05-25T21:54:55.574Z,83.25
2023-05-25T21:57:58.167Z,83.50
2023-05-25T22:01:01.002Z,83.29
2023-05-25T22:04:03.855Z,84.26
2023-05-25T22:07:07.569Z,83.98
2023-05-25T22:10:10.755Z,83.92
2023-05-25T22:13:13.361Z,84.07
2023-05-25T22:16:16.268Z,83.25
2023-05-25T22:19:18.934Z,83.39
2023-05-25T22:22:21.875Z,83.45
2023-05-25T22:25:24.989Z,85.37
2023-05-25T22:28:27.925Z,84.43
2023-05-25T22:31:30.578Z,86.44
2023-05-25T22:34:36.362Z,87.47
2023-05-25T22:37:38.834Z,87.83
2023-05-25T22:40:47.437Z,87.27
2023-05-25T22:43:49.993Z,87.93
2023-05-25T22:46:53.407Z,87.16
2023-05-25T22:49:56.205Z,86.76
2023-05-25T22:52:59.329Z,88.35
2023-05-25T22:56:01.936Z,88.72
2023-05-25T22:59:04.773Z,87.08
2023-05-25T23:02:08.042Z,87.88
2023-05-25T23:05:11.207Z,87.27
2023-05-25T23:08:14.731Z,87.74
2023-05-25T23:11:17.574Z,88.95
2023-05-25T23:14:20.873Z,89.66
2023-05-25T23:17:23.944Z,90.28
2023-05-25T23:20:26.685Z,90.62
2023-05-25T23:23:29.530Z,90.29
2023-05-25T23:26:32.331Z,90.73
2023-05-25T23:29:35.117Z,91.57
2023-05-25T23:32:38.175Z,92.46
2023-05-25T23:35:41.210Z,92.61
2023-05-25T23:38:43.742Z,93.47
2023-05-25T23:41:46.692Z,93.43
2023-05-25T23:44:49.210Z,93.41
2023-05-25T23:47:52.106Z,93.46
2023-05-25T23:50:54.857Z,93.66
2023-05-25T23:53:58.034Z,93.36
2023-05-25T23:57:00.482Z,94.23
